sensor_id;sensor_type;location;lat;lon;timestamp;pressure;altitude;pressure_sealevel;temperature;humidity
47374;BME280;33123;50.118;10.272;2023-06-01T00:02:05;98005.50;;;17.10;49.40
47374;BME280;33123;50.118;10.272;2023-06-01T00:04:32;98007.63;;;17.13;49.33
47374;BME280;33123;50.118;10.272;2023-06-01T00:07:01;98002.84;;;17.10;49.42
47374;BME280;33123;50.118;10.272;2023-06-01T00:09:27;98008.75;;;17.07;49.54
47374;BME280;33123;50.118;10.272;2023-06-01T00:11:54;98001.53;;;17.07;49.24
47374;BME280;33123;50.118;10.272;2023-06-01T00:14:21;97998.38;;;17.05;49.39
47374;BME280;33123;50.118;10.272;2023-06-01T00:16:47;97997.00;;;17.08;49.34
47374;BME280;33123;50.118;10.272;2023-06-01T00:19:14;97989.03;;;17.08;49.38
47374;BME280;33123;50.118;10.272;2023-06-01T00:21:40;97993.56;;;17.07;49.23
47374;BME280;33123;50.118;10.272;2023-06-01T00:24:09;97990.66;;;17.04;49.50
47374;BME280;33123;50.118;10.272;2023-06-01T00:26:35;97995.47;;;17.02;49.58
47374;BME280;33123;50.118;10.272;2023-06-01T00:29:02;97995.22;;;16.98;49.92
47374;BME280;33123;50.118;10.272;2023-06-01T00:31:28;97995.56;;;16.92;50.24
47374;BME280;33123;50.118;10.272;2023-06-01T00:33:55;97986.03;;;16.85;50.59
47374;BME280;33123;50.118;10.272;2023-06-01T00:36:22;97988.75;;;16.75;50.78
47374;BME280;33123;50.118;10.272;2023-06-01T00:38:48;97982.44;;;16.66;51.29
47374;BME280;33123;50.118;10.272;2023-06-01T00:41:17;97983.03;;;16.58;51.29
47374;BME280;33123;50.118;10.272;2023-06-01T00:43:43;97980.44;;;16.48;51.28
47374;BME280;33123;50.118;10.272;2023-06-01T00:46:10;97977.25;;;16.46;51.66
47374;BME280;33123;50.118;10.272;2023-06-01T00:48:39;97986.34;;;16.40;51.62
47374;BME280;33123;50.118;10.272;2023-06-01T00:51:06;97983.44;;;16.36;51.99
47374;BME280;33123;50.118;10.272;2023-06-01T00:53:34;97989.06;;;16.29;51.83
47374;BME280;33123;50.118;10.272;2023-06-01T00:56:00;97985.34;;;16.30;51.75
47374;BME280;33123;50.118;10.272;2023-06-01T00:58:29;97981.09;;;16.29;51.70
47374;BME280;33123;50.118;10.272;2023-06-01T01:00:56;97991.72;;;16.29;51.89
47374;BME280;33123;50.118;10.272;2023-06-01T01:03:23;97988.53;;;16.32;51.40
47374;BME280;33123;50.118;10.272;2023-06-01T01:06:05;97977.06;;;16.32;51.60
47374;BME280;33123;50.118;10.272;2023-06-01T01:08:42;97976.84;;;16.28;51.63
47374;BME280;33123;50.118;10.272;2023-06-01T01:11:18;97989.53;;;16.36;51.65
47374;BME280;33123;50.118;10.272;2023-06-01T01:13:51;97987.97;;;16.35;51.63
47374;BME280;33123;50.118;10.272;2023-06-01T01:16:24;97981.56;;;16.36;51.51
47374;BME280;33123;50.118;10.272;2023-06-01T01:18:57;97990.63;;;16.35;51.58
47374;BME280;33123;50.118;10.272;2023-06-01T01:21:31;97992.81;;;16.28;51.40
47374;BME280;33123;50.118;10.272;2023-06-01T01:24:15;97990.66;;;16.30;51.53
47374;BME280;33123;50.118;10.272;2023-06-01T01:27:04;97987.72;;;16.32;51.72
47374;BME280;33123;50.118;10.272;2023-06-01T01:29:36;97984.25;;;16.31;51.66
47374;BME280;33123;50.118;10.272;2023-06-01T01:32:05;97988.03;;;16.25;51.44
47374;BME280;33123;50.118;10.272;2023-06-01T01:34:32;97983.50;;;16.26;51.62
47374;BME280;33123;50.118;10.272;2023-06-01T01:36:59;97977.38;;;16.25;51.81
47374;BME280;33123;50.118;10.272;2023-06-01T01:39:26;97944.56;;;16.01;51.66
47374;BME280;33123;50.118;10.272;2023-06-01T01:41:53;97978.75;;;16.23;51.59
47374;BME280;33123;50.118;10.272;2023-06-01T01:44:20;97979.03;;;16.21;51.54
47374;BME280;33123;50.118;10.272;2023-06-01T01:46:53;97975.78;;;16.24;51.46
47374;BME280;33123;50.118;10.272;2023-06-01T01:49:27;97970.47;;;16.24;51.43
47374;BME280;33123;50.118;10.272;2023-06-01T01:52:02;97972.06;;;16.25;51.20
47374;BME280;33123;50.118;10.272;2023-06-01T01:54:37;97973.66;;;16.26;51.30
47374;BME280;33123;50.118;10.272;2023-06-01T01:57:04;97970.75;;;16.23;51.66
47374;BME280;33123;50.118;10.272;2023-06-01T01:59:31;97940.84;;;16.02;51.36
47374;BME280;33123;50.118;10.272;2023-06-01T02:02:00;97971.56;;;16.18;51.68
47374;BME280;33123;50.118;10.272;2023-06-01T02:04:28;97978.00;;;16.12;51.78
47374;BME280;33123;50.118;10.272;2023-06-01T02:06:54;97972.19;;;16.05;51.97
47374;BME280;33123;50.118;10.272;2023-06-01T02:09:21;97979.63;;;16.03;52.02
47374;BME280;33123;50.118;10.272;2023-06-01T02:11:47;97971.44;;;15.99;52.04
47374;BME280;33123;50.118;10.272;2023-06-01T02:14:14;97973.56;;;15.92;52.35
47374;BME280;33123;50.118;10.272;2023-06-01T02:16:40;97968.03;;;15.89;52.33
47374;BME280;33123;50.118;10.272;2023-06-01T02:19:11;97965.09;;;15.85;52.63
47374;BME280;33123;50.118;10.272;2023-06-01T02:21:40;97956.09;;;15.81;52.72
47374;BME280;33123;50.118;10.272;2023-06-01T02:24:07;97963.81;;;15.77;52.73
47374;BME280;33123;50.118;10.272;2023-06-01T02:26:34;97954.25;;;15.76;52.85
47374;BME280;33123;50.118;10.272;2023-06-01T02:29:01;97961.44;;;15.71;52.82
47374;BME280;33123;50.118;10.272;2023-06-01T02:31:30;97954.81;;;15.68;53.22
47374;BME280;33123;50.118;10.272;2023-06-01T02:33:57;97953.53;;;15.66;53.23
47374;BME280;33123;50.118;10.272;2023-06-01T02:36:25;97952.97;;;15.64;53.36
47374;BME280;33123;50.118;10.272;2023-06-01T02:38:51;97960.16;;;15.63;53.09
47374;BME280;33123;50.118;10.272;2023-06-01T02:41:18;97945.78;;;15.59;53.41
47374;BME280;33123;50.118;10.272;2023-06-01T02:43:46;97942.09;;;15.55;53.36
47374;BME280;33123;50.118;10.272;2023-06-01T02:46:13;97945.28;;;15.57;53.07
47374;BME280;33123;50.118;10.272;2023-06-01T02:48:39;97947.94;;;15.52;53.26
47374;BME280;33123;50.118;10.272;2023-06-01T02:51:06;97947.94;;;15.52;53.50
47374;BME280;33123;50.118;10.272;2023-06-01T02:53:34;97941.31;;;15.49;53.61
47374;BME280;33123;50.118;10.272;2023-06-01T02:56:01;97919.34;;;15.34;53.54
47374;BME280;33123;50.118;10.272;2023-06-01T02:58:27;97941.84;;;15.46;53.52
47374;BME280;33123;50.118;10.272;2023-06-01T03:00:55;97932.59;;;15.39;53.88
47374;BME280;33123;50.118;10.272;2023-06-01T03:03:23;97935.78;;;15.36;53.73
47374;BME280;33123;50.118;10.272;2023-06-01T03:05:50;97937.66;;;15.35;53.87
47374;BME280;33123;50.118;10.272;2023-06-01T03:08:17;97933.13;;;15.36;53.87
47374;BME280;33123;50.118;10.272;2023-06-01T03:10:45;97938.44;;;15.36;53.86
47374;BME280;33123;50.118;10.272;2023-06-01T03:13:12;97931.81;;;15.33;53.75
47374;BME280;33123;50.118;10.272;2023-06-01T03:15:38;97933.94;;;15.31;53.95
47374;BME280;33123;50.118;10.272;2023-06-01T03:18:05;97928.13;;;15.24;54.20
47374;BME280;33123;50.118;10.272;2023-06-01T03:20:32;97921.22;;;15.23;54.26
47374;BME280;33123;50.118;10.272;2023-06-01T03:22:59;97927.34;;;15.18;54.53
47374;BME280;33123;50.118;10.272;2023-06-01T03:25:26;97928.69;;;15.16;54.71
47374;BME280;33123;50.118;10.272;2023-06-01T03:27:54;97928.94;;;15.14;54.83
47374;BME280;33123;50.118;10.272;2023-06-01T03:30:21;97934.25;;;15.09;54.87
47374;BME280;33123;50.118;10.272;2023-06-01T03:32:47;97933.22;;;15.05;55.27
47374;BME280;33123;50.118;10.272;2023-06-01T03:35:14;97929.50;;;14.96;55.06
47374;BME280;33123;50.118;10.272;2023-06-01T03:37:44;97936.41;;;14.97;55.08
47374;BME280;33123;50.118;10.272;2023-06-01T03:40:11;97945.94;;;14.93;55.25
47374;BME280;33123;50.118;10.272;2023-06-01T03:42:37;97933.75;;;14.92;55.37
47374;BME280;33123;50.118;10.272;2023-06-01T03:45:07;97938.00;;;14.93;55.27
47374;BME280;33123;50.118;10.272;2023-06-01T03:47:34;97938.28;;;14.91;55.35
47374;BME280;33123;50.118;10.272;2023-06-01T03:50:01;97939.06;;;14.92;55.35
47374;BME280;33123;50.118;10.272;2023-06-01T03:52:28;97940.66;;;14.93;55.43
47374;BME280;33123;50.118;10.272;2023-06-01T03:54:56;97939.34;;;14.95;55.55
47374;BME280;33123;50.118;10.272;2023-06-01T03:57:22;97942.00;;;14.95;55.33
47374;BME280;33123;50.118;10.272;2023-06-01T03:59:49;97931.09;;;14.97;55.51
47374;BME280;33123;50.118;10.272;2023-06-01T04:02:18;97940.13;;;15.01;55.28
47374;BME280;33123;50.118;10.272;2023-06-01T04:04:45;97944.63;;;15.05;55.53
47374;BME280;33123;50.118;10.272;2023-06-01T04:07:12;97931.09;;;15.07;55.03
47374;BME280;33123;50.118;10.272;2023-06-01T04:09:40;97947.00;;;15.17;54.83
47374;BME280;33123;50.118;10.272;2023-06-01T04:12:07;97944.31;;;15.22;54.84
47374;BME280;33123;50.118;10.272;2023-06-01T04:14:34;97941.66;;;15.32;54.70
47374;BME280;33123;50.118;10.272;2023-06-01T04:17:01;97940.28;;;15.40;54.51
47374;BME280;33123;50.118;10.272;2023-06-01T04:19:29;97947.69;;;15.48;53.92
47374;BME280;33123;50.118;10.272;2023-06-01T04:21:56;97941.53;;;15.58;54.01
47374;BME280;33123;50.118;10.272;2023-06-01T04:24:23;97943.13;;;15.69;53.53
47374;BME280;33123;50.118;10.272;2023-06-01T04:26:50;97914.72;;;15.65;53.04
47374;BME280;33123;50.118;10.272;2023-06-01T04:29:16;97936.09;;;15.94;53.00
47374;BME280;33123;50.118;10.272;2023-06-01T04:31:44;97934.41;;;16.08;52.85
47374;BME280;33123;50.118;10.272;2023-06-01T04:34:11;97939.34;;;16.25;52.10
47374;BME280;33123;50.118;10.272;2023-06-01T04:36:39;97935.00;;;16.39;51.58
47374;BME280;33123;50.118;10.272;2023-06-01T04:39:06;97937.78;;;16.58;51.29
47374;BME280;33123;50.118;10.272;2023-06-01T04:41:33;97928.34;;;16.76;51.11
47374;BME280;33123;50.118;10.272;2023-06-01T04:44:01;97916.06;;;16.80;50.43
47374;BME280;33123;50.118;10.272;2023-06-01T04:46:31;97931.53;;;17.07;50.08
47374;BME280;33123;50.118;10.272;2023-06-01T04:48:58;97920.91;;;17.26;49.91
47374;BME280;33123;50.118;10.272;2023-06-01T04:51:26;97922.06;;;17.44;49.65
47374;BME280;33123;50.118;10.272;2023-06-01T04:53:56;97929.59;;;17.60;48.76
47374;BME280;33123;50.118;10.272;2023-06-01T04:56:25;97921.94;;;17.78;49.14
47374;BME280;33123;50.118;10.272;2023-06-01T04:58:55;97923.44;;;18.03;48.25
47374;BME280;33123;50.118;10.272;2023-06-01T05:01:23;97924.25;;;18.22;47.68
47374;BME280;33123;50.118;10.272;2023-06-01T05:03:51;97921.78;;;18.44;48.22
47374;BME280;33123;50.118;10.272;2023-06-01T05:06:20;97912.34;;;18.66;47.33
47374;BME280;33123;50.118;10.272;2023-06-01T05:08:47;97924.09;;;18.84;47.84
47374;BME280;33123;50.118;10.272;2023-06-01T05:11:15;97929.34;;;19.03;47.94
47374;BME280;33123;50.118;10.272;2023-06-01T05:13:42;97938.59;;;19.24;47.12
47374;BME280;33123;50.118;10.272;2023-06-01T05:16:09;97940.09;;;19.44;45.17
47374;BME280;33123;50.118;10.272;2023-06-01T05:18:36;97945.66;;;19.61;45.21
47374;BME280;33123;50.118;10.272;2023-06-01T05:21:03;97940.66;;;19.82;44.21
47374;BME280;33123;50.118;10.272;2023-06-01T05:23:30;97937.25;;;20.04;44.04
47374;BME280;33123;50.118;10.272;2023-06-01T05:25:57;97937.59;;;20.25;42.79
47374;BME280;33123;50.118;10.272;2023-06-01T05:28:29;97943.50;;;20.49;43.12
47374;BME280;33123;50.118;10.272;2023-06-01T05:30:55;97944.94;;;20.78;42.58
47374;BME280;33123;50.118;10.272;2023-06-01T05:33:22;97938.78;;;21.08;42.71
47374;BME280;33123;50.118;10.272;2023-06-01T05:35:49;97935.59;;;21.38;41.39
47374;BME280;33123;50.118;10.272;2023-06-01T05:38:15;97937.91;;;21.61;39.89
47374;BME280;33123;50.118;10.272;2023-06-01T05:40:42;97945.06;;;21.92;40.31
47374;BME280;33123;50.118;10.272;2023-06-01T05:43:09;97947.97;;;22.22;39.91
47374;BME280;33123;50.118;10.272;2023-06-01T05:45:37;97946.38;;;22.47;38.55
47374;BME280;33123;50.118;10.272;2023-06-01T05:48:04;97941.16;;;22.67;38.36
47374;BME280;33123;50.118;10.272;2023-06-01T05:50:30;97944.59;;;22.94;37.74
47374;BME280;33123;50.118;10.272;2023-06-01T05:52:57;97934.06;;;23.18;37.84
47374;BME280;33123;50.118;10.272;2023-06-01T05:55:23;97940.13;;;23.45;37.39
47374;BME280;33123;50.118;10.272;2023-06-01T05:57:50;97942.84;;;23.75;36.33
47374;BME280;33123;50.118;10.272;2023-06-01T06:00:19;97938.44;;;24.00;35.65
47374;BME280;33123;50.118;10.272;2023-06-01T06:02:47;97938.78;;;24.31;35.54
47374;BME280;33123;50.118;10.272;2023-06-01T06:05:16;97939.94;;;24.51;34.34
47374;BME280;33123;50.118;10.272;2023-06-01T06:07:43;97948.78;;;24.72;35.17
47374;BME280;33123;50.118;10.272;2023-06-01T06:10:12;97950.41;;;24.98;33.95
47374;BME280;33123;50.118;10.272;2023-06-01T06:12:39;97943.31;;;25.26;33.65
47374;BME280;33123;50.118;10.272;2023-06-01T06:15:07;97937.56;;;25.52;34.10
47374;BME280;33123;50.118;10.272;2023-06-01T06:17:33;97948.16;;;25.82;33.25
47374;BME280;33123;50.118;10.272;2023-06-01T06:20:02;97946.38;;;26.14;32.33
47374;BME280;33123;50.118;10.272;2023-06-01T06:22:31;97944.53;;;26.43;31.81
47374;BME280;33123;50.118;10.272;2023-06-01T06:24:58;97945.31;;;26.71;31.83
47374;BME280;33123;50.118;10.272;2023-06-01T06:27:25;97944.81;;;26.97;30.54
47374;BME280;33123;50.118;10.272;2023-06-01T06:29:51;97910.63;;;26.89;30.00
47374;BME280;33123;50.118;10.272;2023-06-01T06:32:18;97943.66;;;27.26;30.11
47374;BME280;33123;50.118;10.272;2023-06-01T06:34:45;97941.72;;;27.43;30.71
47374;BME280;33123;50.118;10.272;2023-06-01T06:37:13;97935.75;;;27.69;30.08
47374;BME280;33123;50.118;10.272;2023-06-01T06:39:40;97936.63;;;27.88;29.76
47374;BME280;33123;50.118;10.272;2023-06-01T06:42:07;97898.09;;;27.79;29.82
47374;BME280;33123;50.118;10.272;2023-06-01T06:44:34;97939.06;;;28.13;29.60
47374;BME280;33123;50.118;10.272;2023-06-01T06:47:00;97937.06;;;28.29;29.06
47374;BME280;33123;50.118;10.272;2023-06-01T06:49:27;97945.66;;;28.51;29.49
47374;BME280;33123;50.118;10.272;2023-06-01T06:51:53;97936.38;;;28.71;28.23
47374;BME280;33123;50.118;10.272;2023-06-01T06:54:22;97941.38;;;28.92;28.07
47374;BME280;33123;50.118;10.272;2023-06-01T06:56:49;97942.69;;;29.21;28.39
47374;BME280;33123;50.118;10.272;2023-06-01T06:59:16;97934.22;;;29.49;27.78
47374;BME280;33123;50.118;10.272;2023-06-01T07:01:43;97932.31;;;29.76;26.86
47374;BME280;33123;50.118;10.272;2023-06-01T07:04:10;97937.38;;;30.08;27.01
47374;BME280;33123;50.118;10.272;2023-06-01T07:06:36;97936.22;;;30.09;25.32
47374;BME280;33123;50.118;10.272;2023-06-01T07:09:03;97933.03;;;30.30;27.05
47374;BME280;33123;50.118;10.272;2023-06-01T07:11:32;97934.97;;;30.29;25.61
47374;BME280;33123;50.118;10.272;2023-06-01T07:13:58;97927.84;;;30.17;26.14
47374;BME280;33123;50.118;10.272;2023-06-01T07:16:25;97927.53;;;30.22;26.68
47374;BME280;33123;50.118;10.272;2023-06-01T07:18:52;97932.66;;;30.31;26.34
47374;BME280;33123;50.118;10.272;2023-06-01T07:21:19;97935.63;;;30.53;26.23
47374;BME280;33123;50.118;10.272;2023-06-01T07:23:46;97937.88;;;30.81;26.58
47374;BME280;33123;50.118;10.272;2023-06-01T07:26:13;97934.25;;;31.07;26.08
47374;BME280;33123;50.118;10.272;2023-06-01T07:28:41;97939.53;;;31.30;25.42
47374;BME280;33123;50.118;10.272;2023-06-01T07:31:08;97933.78;;;31.38;25.22
47374;BME280;33123;50.118;10.272;2023-06-01T07:33:34;97918.25;;;31.46;25.81
47374;BME280;33123;50.118;10.272;2023-06-01T07:36:03;97931.59;;;31.62;24.84
47374;BME280;33123;50.118;10.272;2023-06-01T07:38:30;97921.94;;;31.75;24.91
47374;BME280;33123;50.118;10.272;2023-06-01T07:40:58;97922.88;;;31.93;26.07
47374;BME280;33123;50.118;10.272;2023-06-01T07:43:25;97933.53;;;32.30;24.09
47374;BME280;33123;50.118;10.272;2023-06-01T07:45:53;97925.06;;;32.53;23.33
47374;BME280;33123;50.118;10.272;2023-06-01T07:48:20;97929.00;;;32.63;23.62
47374;BME280;33123;50.118;10.272;2023-06-01T07:50:46;97920.44;;;32.75;24.74
47374;BME280;33123;50.118;10.272;2023-06-01T07:53:13;97928.25;;;32.84;24.06
47374;BME280;33123;50.118;10.272;2023-06-01T07:55:40;97924.00;;;32.90;23.20
47374;BME280;33123;50.118;10.272;2023-06-01T07:58:06;97917.38;;;33.05;22.71
47374;BME280;33123;50.118;10.272;2023-06-01T08:00:33;97914.28;;;33.10;23.75
47374;BME280;33123;50.118;10.272;2023-06-01T08:03:01;97914.25;;;33.18;23.64
47374;BME280;33123;50.118;10.272;2023-06-01T08:05:31;97913.47;;;33.31;23.95
47374;BME280;33123;50.118;10.272;2023-06-01T08:07:58;97909.59;;;33.43;23.37
47374;BME280;33123;50.118;10.272;2023-06-01T08:10:25;97908.78;;;33.53;22.57
47374;BME280;33123;50.118;10.272;2023-06-01T08:12:51;97904.09;;;33.72;23.16
47374;BME280;33123;50.118;10.272;2023-06-01T08:15:21;97909.16;;;33.70;22.08
47374;BME280;33123;50.118;10.272;2023-06-01T08:17:48;97908.41;;;33.66;23.00
47374;BME280;33123;50.118;10.272;2023-06-01T08:20:17;97904.84;;;33.72;22.66
47374;BME280;33123;50.118;10.272;2023-06-01T08:22:47;97894.69;;;33.69;22.85
47374;BME280;33123;50.118;10.272;2023-06-01T08:25:14;97900.94;;;33.73;22.38
47374;BME280;33123;50.118;10.272;2023-06-01T08:27:41;97902.84;;;33.87;21.35
47374;BME280;33123;50.118;10.272;2023-06-01T08:30:08;97893.09;;;33.97;23.00
47374;BME280;33123;50.118;10.272;2023-06-01T08:32:35;97889.09;;;34.19;20.36
47374;BME280;33123;50.118;10.272;2023-06-01T08:35:02;97886.25;;;34.37;20.38
47374;BME280;33123;50.118;10.272;2023-06-01T08:37:30;97888.19;;;34.47;21.10
47374;BME280;33123;50.118;10.272;2023-06-01T08:39:56;97887.34;;;34.57;21.07
47374;BME280;33123;50.118;10.272;2023-06-01T08:42:25;97883.81;;;34.60;20.96
47374;BME280;33123;50.118;10.272;2023-06-01T08:44:57;97883.41;;;34.62;21.73
47374;BME280;33123;50.118;10.272;2023-06-01T08:47:24;97883.84;;;34.53;20.11
47374;BME280;33123;50.118;10.272;2023-06-01T08:49:52;97885.34;;;34.65;21.10
47374;BME280;33123;50.118;10.272;2023-06-01T08:52:20;97863.94;;;34.49;21.60
47374;BME280;33123;50.118;10.272;2023-06-01T08:54:49;97874.78;;;34.67;21.58
47374;BME280;33123;50.118;10.272;2023-06-01T08:57:16;97879.31;;;34.88;20.67
47374;BME280;33123;50.118;10.272;2023-06-01T08:59:45;97878.44;;;35.05;21.02
47374;BME280;33123;50.118;10.272;2023-06-01T09:02:13;97875.94;;;35.22;20.31
47374;BME280;33123;50.118;10.272;2023-06-01T09:04:40;97870.28;;;35.39;20.08
47374;BME280;33123;50.118;10.272;2023-06-01T09:07:10;97872.09;;;35.15;19.70
47374;BME280;33123;50.118;10.272;2023-06-01T09:09:37;97868.22;;;35.09;20.58
47374;BME280;33123;50.118;10.272;2023-06-01T09:12:21;97878.16;;;35.37;20.70
47374;BME280;33123;50.118;10.272;2023-06-01T09:14:51;97875.75;;;35.43;20.95
47374;BME280;33123;50.118;10.272;2023-06-01T09:17:33;97869.78;;;35.52;19.36
47374;BME280;33123;50.118;10.272;2023-06-01T09:20:00;97858.81;;;35.86;19.00
47374;BME280;33123;50.118;10.272;2023-06-01T09:22:37;97854.19;;;36.13;18.74
47374;BME280;33123;50.118;10.272;2023-06-01T09:25:04;97846.53;;;36.32;18.50
47374;BME280;33123;50.118;10.272;2023-06-01T09:27:43;97847.88;;;36.47;18.56
47374;BME280;33123;50.118;10.272;2023-06-01T09:30:11;97852.09;;;36.55;17.87
47374;BME280;33123;50.118;10.272;2023-06-01T09:32:38;97846.59;;;36.55;17.83
47374;BME280;33123;50.118;10.272;2023-06-01T09:35:05;97851.81;;;36.46;19.56
47374;BME280;33123;50.118;10.272;2023-06-01T09:37:33;97843.78;;;36.59;18.93
47374;BME280;33123;50.118;10.272;2023-06-01T09:40:00;97846.00;;;36.67;18.88
47374;BME280;33123;50.118;10.272;2023-06-01T09:42:31;97846.97;;;36.81;19.53
47374;BME280;33123;50.118;10.272;2023-06-01T09:45:14;97844.75;;;36.99;18.79
47374;BME280;33123;50.118;10.272;2023-06-01T09:47:41;97844.94;;;36.88;17.32
47374;BME280;33123;50.118;10.272;2023-06-01T09:50:09;97851.22;;;36.85;18.29
47374;BME280;33123;50.118;10.272;2023-06-01T09:52:36;97850.50;;;36.81;18.05
47374;BME280;33123;50.118;10.272;2023-06-01T09:55:08;97839.34;;;36.92;18.53
47374;BME280;33123;50.118;10.272;2023-06-01T09:57:34;97840.03;;;36.99;18.74
47374;BME280;33123;50.118;10.272;2023-06-01T10:00:02;97835.75;;;37.18;18.90
47374;BME280;33123;50.118;10.272;2023-06-01T10:02:32;97833.13;;;37.35;18.67
47374;BME280;33123;50.118;10.272;2023-06-01T10:05:00;97835.25;;;37.47;18.60
47374;BME280;33123;50.118;10.272;2023-06-01T10:07:28;97824.34;;;37.63;17.96
47374;BME280;33123;50.118;10.272;2023-06-01T10:09:56;97829.91;;;37.79;17.21
47374;BME280;33123;50.118;10.272;2023-06-01T10:12:24;97831.25;;;37.91;18.21
47374;BME280;33123;50.118;10.272;2023-06-01T10:14:51;97827.25;;;37.96;18.21
47374;BME280;33123;50.118;10.272;2023-06-01T10:17:18;97820.75;;;38.06;18.53
47374;BME280;33123;50.118;10.272;2023-06-01T10:19:47;97811.44;;;38.00;18.00
47374;BME280;33123;50.118;10.272;2023-06-01T10:22:14;97821.53;;;38.23;18.02
47374;BME280;33123;50.118;10.272;2023-06-01T10:24:42;97822.75;;;38.22;17.43
47374;BME280;33123;50.118;10.272;2023-06-01T10:27:15;97822.63;;;38.29;17.71
47374;BME280;33123;50.118;10.272;2023-06-01T10:29:43;97818.31;;;38.28;16.09
47374;BME280;33123;50.118;10.272;2023-06-01T10:32:40;97820.72;;;38.42;16.79
47374;BME280;33123;50.118;10.272;2023-06-01T10:35:09;97804.97;;;38.26;17.82
47374;BME280;33123;50.118;10.272;2023-06-01T10:37:37;97802.53;;;38.12;17.69
47374;BME280;33123;50.118;10.272;2023-06-01T10:40:18;97807.69;;;38.10;17.89
47374;BME280;33123;50.118;10.272;2023-06-01T10:42:46;97803.22;;;38.16;18.07
47374;BME280;33123;50.118;10.272;2023-06-01T10:45:37;97793.47;;;38.32;18.26
47374;BME280;33123;50.118;10.272;2023-06-01T10:48:06;97802.06;;;38.34;17.75
47374;BME280;33123;50.118;10.272;2023-06-01T10:50:34;97791.56;;;38.28;16.93
47374;BME280;33123;50.118;10.272;2023-06-01T10:53:23;97789.13;;;38.30;17.54
47374;BME280;33123;50.118;10.272;2023-06-01T10:56:17;97795.28;;;38.18;18.35
47374;BME280;33123;50.118;10.272;2023-06-01T10:58:44;97789.09;;;38.14;17.63
47374;BME280;33123;50.118;10.272;2023-06-01T11:01:18;97790.81;;;38.08;17.78
47374;BME280;33123;50.118;10.272;2023-06-01T11:03:46;97792.63;;;37.98;16.53
47374;BME280;33123;50.118;10.272;2023-06-01T11:06:28;97777.00;;;37.92;17.87
47374;BME280;33123;50.118;10.272;2023-06-01T11:08:58;97786.66;;;38.00;17.84
47374;BME280;33123;50.118;10.272;2023-06-01T11:11:56;97783.06;;;38.03;17.40
47374;BME280;33123;50.118;10.272;2023-06-01T11:14:24;97777.09;;;37.88;18.55
47374;BME280;33123;50.118;10.272;2023-06-01T11:16:52;97776.75;;;37.66;17.59
47374;BME280;33123;50.118;10.272;2023-06-01T11:19:20;97780.00;;;37.61;17.75
47374;BME280;33123;50.118;10.272;2023-06-01T11:21:55;97779.34;;;37.53;17.12
47374;BME280;33123;50.118;10.272;2023-06-01T11:24:31;97766.19;;;37.45;17.02
47374;BME280;33123;50.118;10.272;2023-06-01T11:27:04;97769.69;;;37.45;17.98
47374;BME280;33123;50.118;10.272;2023-06-01T11:29:31;97763.88;;;37.43;18.26
47374;BME280;33123;50.118;10.272;2023-06-01T11:31:59;97761.41;;;37.25;18.63
47374;BME280;33123;50.118;10.272;2023-06-01T11:34:30;97759.97;;;37.21;17.86
47374;BME280;33123;50.118;10.272;2023-06-01T11:36:59;97752.28;;;37.32;17.60
47374;BME280;33123;50.118;10.272;2023-06-01T11:39:27;97760.00;;;37.17;17.96
47374;BME280;33123;50.118;10.272;2023-06-01T11:42:04;97758.59;;;37.09;17.96
47374;BME280;33123;50.118;10.272;2023-06-01T11:44:33;97755.72;;;36.69;17.96
47374;BME280;33123;50.118;10.272;2023-06-01T11:47:00;97748.56;;;36.75;16.99
47374;BME280;33123;50.118;10.272;2023-06-01T11:49:27;97738.97;;;36.13;18.15
47374;BME280;33123;50.118;10.272;2023-06-01T11:51:54;97745.28;;;36.10;19.36
47374;BME280;33123;50.118;10.272;2023-06-01T11:54:27;97733.50;;;35.83;18.33
47374;BME280;33123;50.118;10.272;2023-06-01T11:56:55;97730.94;;;35.99;19.23
47374;BME280;33123;50.118;10.272;2023-06-01T11:59:23;97726.28;;;35.96;19.46
47374;BME280;33123;50.118;10.272;2023-06-01T12:01:50;97728.66;;;35.94;18.92
47374;BME280;33123;50.118;10.272;2023-06-01T12:04:21;97725.16;;;35.93;17.98
47374;BME280;33123;50.118;10.272;2023-06-01T12:06:48;97719.31;;;35.88;19.10
47374;BME280;33123;50.118;10.272;2023-06-01T12:09:16;97711.13;;;35.57;18.76
47374;BME280;33123;50.118;10.272;2023-06-01T12:11:45;97720.56;;;35.53;18.53
47374;BME280;33123;50.118;10.272;2023-06-01T12:14:13;97729.44;;;35.30;18.79
47374;BME280;33123;50.118;10.272;2023-06-01T12:16:57;97721.06;;;35.10;19.00
47374;BME280;33123;50.118;10.272;2023-06-01T12:19:25;97715.28;;;35.01;19.41
47374;BME280;33123;50.118;10.272;2023-06-01T12:21:53;97713.34;;;34.98;18.67
47374;BME280;33123;50.118;10.272;2023-06-01T12:24:26;97717.69;;;34.95;18.96
47374;BME280;33123;50.118;10.272;2023-06-01T12:26:55;97713.56;;;34.76;18.98
47374;BME280;33123;50.118;10.272;2023-06-01T12:29:36;97701.84;;;34.72;18.81
47374;BME280;33123;50.118;10.272;2023-06-01T12:32:03;97708.56;;;34.64;20.15
47374;BME280;33123;50.118;10.272;2023-06-01T12:34:30;97707.44;;;34.61;19.97
47374;BME280;33123;50.118;10.272;2023-06-01T12:36:56;97697.06;;;34.35;19.01
47374;BME280;33123;50.118;10.272;2023-06-01T12:39:32;97690.38;;;34.43;19.99
47374;BME280;33123;50.118;10.272;2023-06-01T12:42:03;97695.13;;;34.35;21.37
47374;BME280;33123;50.118;10.272;2023-06-01T12:44:30;97694.31;;;34.38;21.89
47374;BME280;33123;50.118;10.272;2023-06-01T12:46:58;97695.44;;;34.41;21.16
47374;BME280;33123;50.118;10.272;2023-06-01T12:49:24;97683.75;;;34.37;20.43
47374;BME280;33123;50.118;10.272;2023-06-01T12:51:52;97681.66;;;34.10;19.66
47374;BME280;33123;50.118;10.272;2023-06-01T12:54:18;97679.50;;;33.77;20.48
47374;BME280;33123;50.118;10.272;2023-06-01T12:56:48;97684.66;;;33.60;20.71
47374;BME280;33123;50.118;10.272;2023-06-01T12:59:17;97685.47;;;33.57;20.74